sensor_id;sensor_type;location;lat;lon;timestamp;temperature;humidity
26743;DHT22;14341;51.256;22.478;2022-12-07T00:00:36;1.60;99.90
26743;DHT22;14341;51.256;22.478;2022-12-07T00:03:40;1.60;99.90
26743;DHT22;14341;51.256;22.478;2022-12-07T00:06:45;1.60;99.90
26743;DHT22;14341;51.256;22.478;2022-12-07T00:09:49;1.60;99.90
26743;DHT22;14341;51.256;22.478;2022-12-07T00:12:54;1.60;99.90
26743;DHT22;14341;51.256;22.478;2022-12-07T00:16:00;1.70;99.90
26743;DHT22;14341;51.256;22.478;2022-12-07T00:19:05;1.70;99.90
26743;DHT22;14341;51.256;22.478;2022-12-07T00:22:08;1.70;99.90
26743;DHT22;14341;51.256;22.478;2022-12-07T00:25:11;1.80;99.90
26743;DHT22;14341;51.256;22.478;2022-12-07T00:28:16;1.80;99.90
26743;DHT22;14341;51.256;22.478;2022-12-07T00:31:21;1.90;99.90
26743;DHT22;14341;51.256;22.478;2022-12-07T00:34:25;1.90;99.90
26743;DHT22;14341;51.256;22.478;2022-12-07T00:37:28;1.90;99.90
26743;DHT22;14341;51.256;22.478;2022-12-07T00:40:32;1.90;99.90
26743;DHT22;14341;51.256;22.478;2022-12-07T00:43:36;2.00;99.90
26743;DHT22;14341;51.256;22.478;2022-12-07T00:46:40;2.00;99.90
26743;DHT22;14341;51.256;22.478;2022-12-07T00:49:43;2.00;99.90
26743;DHT22;14341;51.256;22.478;2022-12-07T00:52:46;2.10;99.90
26743;DHT22;14341;51.256;22.478;2022-12-07T00:55:50;2.10;99.90
26743;DHT22;14341;51.256;22.478;2022-12-07T00:58:56;2.20;99.90
26743;DHT22;14341;51.256;22.478;2022-12-07T01:02:00;2.10;99.90
26743;DHT22;14341;51.256;22.478;2022-12-07T01:05:05;2.10;99.90
26743;DHT22;14341;51.256;22.478;2022-12-07T01:08:08;2.10;99.90
26743;DHT22;14341;51.256;22.478;2022-12-07T01:11:14;2.20;99.90
26743;DHT22;14341;51.256;22.478;2022-12-07T01:14:19;2.20;99.90
26743;DHT22;14341;51.256;22.478;2022-12-07T01:17:22;2.30;99.90
26743;DHT22;14341;51.256;22.478;2022-12-07T01:20:26;2.20;99.90
26743;DHT22;14341;51.256;22.478;2022-12-07T01:23:29;2.20;99.90
26743;DHT22;14341;51.256;22.478;2022-12-07T01:26:33;2.30;99.90
26743;DHT22;14341;51.256;22.478;2022-12-07T01:29:38;2.20;99.90
26743;DHT22;14341;51.256;22.478;2022-12-07T01:32:42;2.20;99.90
26743;DHT22;14341;51.256;22.478;2022-12-07T01:35:45;2.20;99.90
26743;DHT22;14341;51.256;22.478;2022-12-07T01:38:50;2.20;99.90
26743;DHT22;14341;51.256;22.478;2022-12-07T01:41:54;2.20;99.90
26743;DHT22;14341;51.256;22.478;2022-12-07T01:48:48;2.20;99.90
26743;DHT22;14341;51.256;22.478;2022-12-07T01:51:57;2.20;99.90
26743;DHT22;14341;51.256;22.478;2022-12-07T01:55:03;2.30;99.90
26743;DHT22;14341;51.256;22.478;2022-12-07T01:58:08;2.20;99.90
26743;DHT22;14341;51.256;22.478;2022-12-07T02:01:15;2.20;99.90
26743;DHT22;14341;51.256;22.478;2022-12-07T02:04:21;2.20;99.90
26743;DHT22;14341;51.256;22.478;2022-12-07T02:07:25;2.20;99.90
26743;DHT22;14341;51.256;22.478;2022-12-07T02:10:31;2.20;99.90
26743;DHT22;14341;51.256;22.478;2022-12-07T02:13:36;2.20;99.90
26743;DHT22;14341;51.256;22.478;2022-12-07T02:16:47;2.20;99.90
26743;DHT22;14341;51.256;22.478;2022-12-07T02:20:16;2.20;99.90
26743;DHT22;14341;51.256;22.478;2022-12-07T02:27:40;2.20;99.90
26743;DHT22;14341;51.256;22.478;2022-12-07T02:30:50;2.20;99.90
26743;DHT22;14341;51.256;22.478;2022-12-07T02:34:02;2.20;99.90
26743;DHT22;14341;51.256;22.478;2022-12-07T02:37:14;2.30;99.90
26743;DHT22;14341;51.256;22.478;2022-12-07T02:40:23;2.20;99.90
26743;DHT22;14341;51.256;22.478;2022-12-07T02:43:30;2.20;99.90
26743;DHT22;14341;51.256;22.478;2022-12-07T02:46:38;2.20;99.90
26743;DHT22;14341;51.256;22.478;2022-12-07T02:49:43;2.20;99.90
26743;DHT22;14341;51.256;22.478;2022-12-07T02:52:47;2.30;99.90
26743;DHT22;14341;51.256;22.478;2022-12-07T02:55:51;2.10;99.90
26743;DHT22;14341;51.256;22.478;2022-12-07T02:59:01;2.20;99.90
26743;DHT22;14341;51.256;22.478;2022-12-07T03:02:14;2.10;99.90
26743;DHT22;14341;51.256;22.478;2022-12-07T03:05:31;2.10;99.90
26743;DHT22;14341;51.256;22.478;2022-12-07T03:08:47;2.10;99.90
26743;DHT22;14341;51.256;22.478;2022-12-07T03:12:00;2.10;99.90
26743;DHT22;14341;51.256;22.478;2022-12-07T03:15:08;2.00;99.90
26743;DHT22;14341;51.256;22.478;2022-12-07T03:18:18;2.00;99.90
26743;DHT22;14341;51.256;22.478;2022-12-07T03:21:24;2.00;99.90
26743;DHT22;14341;51.256;22.478;2022-12-07T03:24:33;2.00;99.90
26743;DHT22;14341;51.256;22.478;2022-12-07T03:27:39;1.90;99.90
26743;DHT22;14341;51.256;22.478;2022-12-07T03:30:48;1.80;99.90
26743;DHT22;14341;51.256;22.478;2022-12-07T03:33:58;1.90;99.90
26743;DHT22;14341;51.256;22.478;2022-12-07T03:37:05;1.70;99.90
26743;DHT22;14341;51.256;22.478;2022-12-07T03:40:14;1.70;99.90
26743;DHT22;14341;51.256;22.478;2022-12-07T03:43:19;1.50;99.90
26743;DHT22;14341;51.256;22.478;2022-12-07T03:46:30;1.40;99.90
26743;DHT22;14341;51.256;22.478;2022-12-07T03:49:42;1.30;99.90
26743;DHT22;14341;51.256;22.478;2022-12-07T03:52:51;1.20;99.90
26743;DHT22;14341;51.256;22.478;2022-12-07T03:55:57;1.20;99.90
26743;DHT22;14341;51.256;22.478;2022-12-07T03:59:00;1.20;99.90
26743;DHT22;14341;51.256;22.478;2022-12-07T04:02:05;1.10;99.90
26743;DHT22;14341;51.256;22.478;2022-12-07T04:05:11;1.10;99.90
26743;DHT22;14341;51.256;22.478;2022-12-07T04:08:14;1.00;99.90
26743;DHT22;14341;51.256;22.478;2022-12-07T04:11:18;1.00;99.90
26743;DHT22;14341;51.256;22.478;2022-12-07T04:14:21;1.10;99.90
26743;DHT22;14341;51.256;22.478;2022-12-07T04:17:25;1.00;99.90
26743;DHT22;14341;51.256;22.478;2022-12-07T04:20:29;0.90;99.90
26743;DHT22;14341;51.256;22.478;2022-12-07T04:23:32;1.00;99.90
26743;DHT22;14341;51.256;22.478;2022-12-07T04:26:36;0.90;99.90
26743;DHT22;14341;51.256;22.478;2022-12-07T04:29:39;0.90;99.90
26743;DHT22;14341;51.256;22.478;2022-12-07T04:32:42;0.90;99.90
26743;DHT22;14341;51.256;22.478;2022-12-07T04:35:47;0.90;99.90
26743;DHT22;14341;51.256;22.478;2022-12-07T04:38:52;1.00;99.90
26743;DHT22;14341;51.256;22.478;2022-12-07T04:41:56;0.90;99.90
26743;DHT22;14341;51.256;22.478;2022-12-07T04:44:59;0.90;99.90
26743;DHT22;14341;51.256;22.478;2022-12-07T04:48:02;0.90;99.90
26743;DHT22;14341;51.256;22.478;2022-12-07T04:51:07;0.90;99.90
26743;DHT22;14341;51.256;22.478;2022-12-07T04:54:11;0.90;99.90
26743;DHT22;14341;51.256;22.478;2022-12-07T04:57:14;0.90;99.90
26743;DHT22;14341;51.256;22.478;2022-12-07T05:00:19;0.90;99.90
26743;DHT22;14341;51.256;22.478;2022-12-07T05:03:27;0.80;99.90
26743;DHT22;14341;51.256;22.478;2022-12-07T05:06:34;0.90;99.90
26743;DHT22;14341;51.256;22.478;2022-12-07T05:09:41;1.00;99.90
26743;DHT22;14341;51.256;22.478;2022-12-07T05:16:11;0.90;99.90
26743;DHT22;14341;51.256;22.478;2022-12-07T05:19:28;0.90;99.90
26743;DHT22;14341;51.256;22.478;2022-12-07T05:22:49;1.00;99.90
26743;DHT22;14341;51.256;22.478;2022-12-07T05:25:56;0.90;99.90
26743;DHT22;14341;51.256;22.478;2022-12-07T05:29:09;1.00;99.90
26743;DHT22;14341;51.256;22.478;2022-12-07T05:32:20;1.00;99.90
26743;DHT22;14341;51.256;22.478;2022-12-07T05:35:29;1.00;99.90
26743;DHT22;14341;51.256;22.478;2022-12-07T05:38:37;1.00;99.90
26743;DHT22;14341;51.256;22.478;2022-12-07T05:42:10;1.00;99.90
26743;DHT22;14341;51.256;22.478;2022-12-07T05:45:20;1.10;99.90
26743;DHT22;14341;51.256;22.478;2022-12-07T05:48:31;1.10;99.90
26743;DHT22;14341;51.256;22.478;2022-12-07T05:51:41;1.10;99.90
26743;DHT22;14341;51.256;22.478;2022-12-07T05:54:50;1.10;99.90
26743;DHT22;14341;51.256;22.478;2022-12-07T05:57:56;1.10;99.90
26743;DHT22;14341;51.256;22.478;2022-12-07T06:01:28;1.10;99.90
26743;DHT22;14341;51.256;22.478;2022-12-07T06:04:41;1.10;99.90
26743;DHT22;14341;51.256;22.478;2022-12-07T06:08:03;1.10;99.90
26743;DHT22;14341;51.256;22.478;2022-12-07T06:11:10;1.20;99.90
26743;DHT22;14341;51.256;22.478;2022-12-07T06:14:32;1.20;99.90
26743;DHT22;14341;51.256;22.478;2022-12-07T06:17:40;1.20;99.90
26743;DHT22;14341;51.256;22.478;2022-12-07T06:20:47;1.20;99.90
26743;DHT22;14341;51.256;22.478;2022-12-07T06:23:54;1.20;99.90
26743;DHT22;14341;51.256;22.478;2022-12-07T06:26:58;1.20;99.90
26743;DHT22;14341;51.256;22.478;2022-12-07T06:30:01;1.20;99.90
26743;DHT22;14341;51.256;22.478;2022-12-07T06:33:08;1.20;99.90
26743;DHT22;14341;51.256;22.478;2022-12-07T06:36:13;1.30;99.90
26743;DHT22;14341;51.256;22.478;2022-12-07T06:39:16;1.20;99.90
26743;DHT22;14341;51.256;22.478;2022-12-07T06:42:20;1.20;99.90
26743;DHT22;14341;51.256;22.478;2022-12-07T06:45:23;1.20;99.90
26743;DHT22;14341;51.256;22.478;2022-12-07T06:48:27;1.20;99.90
26743;DHT22;14341;51.256;22.478;2022-12-07T06:51:32;1.20;99.90
26743;DHT22;14341;51.256;22.478;2022-12-07T06:54:37;1.20;99.90
26743;DHT22;14341;51.256;22.478;2022-12-07T06:57:40;1.30;99.90
26743;DHT22;14341;51.256;22.478;2022-12-07T07:00:43;1.20;99.90
26743;DHT22;14341;51.256;22.478;2022-12-07T07:03:47;1.20;99.90
26743;DHT22;14341;51.256;22.478;2022-12-07T07:06:51;1.20;99.90
26743;DHT22;14341;51.256;22.478;2022-12-07T07:10:01;1.20;99.90
26743;DHT22;14341;51.256;22.478;2022-12-07T07:13:05;1.20;99.90
26743;DHT22;14341;51.256;22.478;2022-12-07T07:16:08;1.30;99.90
26743;DHT22;14341;51.256;22.478;2022-12-07T07:19:12;1.20;99.90
26743;DHT22;14341;51.256;22.478;2022-12-07T07:22:17;1.20;99.90
26743;DHT22;14341;51.256;22.478;2022-12-07T07:25:20;1.20;99.90
26743;DHT22;14341;51.256;22.478;2022-12-07T07:28:24;1.20;99.90
26743;DHT22;14341;51.256;22.478;2022-12-07T07:31:27;1.20;99.90
26743;DHT22;14341;51.256;22.478;2022-12-07T07:34:30;1.20;99.90
26743;DHT22;14341;51.256;22.478;2022-12-07T07:37:35;1.20;99.90
26743;DHT22;14341;51.256;22.478;2022-12-07T07:40:38;1.20;99.90
26743;DHT22;14341;51.256;22.478;2022-12-07T07:43:41;1.20;99.90
26743;DHT22;14341;51.256;22.478;2022-12-07T07:46:45;1.10;99.90
26743;DHT22;14341;51.256;22.478;2022-12-07T07:49:48;1.10;99.90
26743;DHT22;14341;51.256;22.478;2022-12-07T07:52:52;1.20;99.90
26743;DHT22;14341;51.256;22.478;2022-12-07T07:55:56;1.30;99.90
26743;DHT22;14341;51.256;22.478;2022-12-07T07:58:59;1.20;99.90
26743;DHT22;14341;51.256;22.478;2022-12-07T08:02:02;1.30;99.90
26743;DHT22;14341;51.256;22.478;2022-12-07T08:05:06;1.20;99.90
26743;DHT22;14341;51.256;22.478;2022-12-07T08:08:11;1.20;99.90
26743;DHT22;14341;51.256;22.478;2022-12-07T08:11:14;1.20;99.90
26743;DHT22;14341;51.256;22.478;2022-12-07T08:14:18;1.20;99.90
26743;DHT22;14341;51.256;22.478;2022-12-07T08:17:21;1.30;99.90
26743;DHT22;14341;51.256;22.478;2022-12-07T08:20:24;1.30;99.90
26743;DHT22;14341;51.256;22.478;2022-12-07T08:23:30;1.30;99.90
26743;DHT22;14341;51.256;22.478;2022-12-07T08:26:40;1.30;99.90
26743;DHT22;14341;51.256;22.478;2022-12-07T08:29:44;1.20;99.90
26743;DHT22;14341;51.256;22.478;2022-12-07T08:32:47;1.30;99.90
26743;DHT22;14341;51.256;22.478;2022-12-07T08:35:51;1.10;99.90
26743;DHT22;14341;51.256;22.478;2022-12-07T08:38:55;1.20;99.90
26743;DHT22;14341;51.256;22.478;2022-12-07T08:42:18;1.20;99.90
26743;DHT22;14341;51.256;22.478;2022-12-07T08:45:24;1.20;99.90
26743;DHT22;14341;51.256;22.478;2022-12-07T08:48:28;1.20;99.90
26743;DHT22;14341;51.256;22.478;2022-12-07T08:51:33;1.20;99.90
26743;DHT22;14341;51.256;22.478;2022-12-07T08:54:39;1.20;99.90
26743;DHT22;14341;51.256;22.478;2022-12-07T08:57:43;1.20;99.90
26743;DHT22;14341;51.256;22.478;2022-12-07T09:00:46;1.20;99.90
26743;DHT22;14341;51.256;22.478;2022-12-07T09:03:50;1.60;99.90
26743;DHT22;14341;51.256;22.478;2022-12-07T09:06:54;1.30;99.90
26743;DHT22;14341;51.256;22.478;2022-12-07T09:09:59;1.30;99.90
26743;DHT22;14341;51.256;22.478;2022-12-07T09:13:03;1.30;99.90
26743;DHT22;14341;51.256;22.478;2022-12-07T09:16:07;1.70;99.90
26743;DHT22;14341;51.256;22.478;2022-12-07T09:19:10;1.80;99.90
26743;DHT22;14341;51.256;22.478;2022-12-07T09:22:14;1.50;99.90
26743;DHT22;14341;51.256;22.478;2022-12-07T09:25:19;1.50;99.90
26743;DHT22;14341;51.256;22.478;2022-12-07T09:28:22;1.50;99.90
26743;DHT22;14341;51.256;22.478;2022-12-07T09:31:25;1.40;99.90
26743;DHT22;14341;51.256;22.478;2022-12-07T09:34:31;1.30;99.90
26743;DHT22;14341;51.256;22.478;2022-12-07T09:37:35;1.40;99.90
26743;DHT22;14341;51.256;22.478;2022-12-07T09:40:40;1.40;99.90
26743;DHT22;14341;51.256;22.478;2022-12-07T09:43:45;1.40;99.90
26743;DHT22;14341;51.256;22.478;2022-12-07T09:46:49;1.40;99.90
26743;DHT22;14341;51.256;22.478;2022-12-07T09:49:54;1.50;99.90
26743;DHT22;14341;51.256;22.478;2022-12-07T09:53:07;1.40;99.90
26743;DHT22;14341;51.256;22.478;2022-12-07T09:56:13;1.40;99.90
26743;DHT22;14341;51.256;22.478;2022-12-07T09:59:18;1.40;99.90
26743;DHT22;14341;51.256;22.478;2022-12-07T10:02:27;1.30;99.90
26743;DHT22;14341;51.256;22.478;2022-12-07T10:05:34;1.40;99.90
26743;DHT22;14341;51.256;22.478;2022-12-07T10:08:39;1.50;99.90
26743;DHT22;14341;51.256;22.478;2022-12-07T10:12:04;1.50;99.90
26743;DHT22;14341;51.256;22.478;2022-12-07T10:15:08;1.50;99.90
26743;DHT22;14341;51.256;22.478;2022-12-07T10:18:25;1.50;99.90
26743;DHT22;14341;51.256;22.478;2022-12-07T10:21:29;1.50;99.90
26743;DHT22;14341;51.256;22.478;2022-12-07T10:24:32;1.60;99.90
26743;DHT22;14341;51.256;22.478;2022-12-07T10:27:37;1.50;99.90
26743;DHT22;14341;51.256;22.478;2022-12-07T10:30:52;1.60;99.90
26743;DHT22;14341;51.256;22.478;2022-12-07T10:33:58;1.50;99.90
26743;DHT22;14341;51.256;22.478;2022-12-07T10:37:15;1.50;99.90
26743;DHT22;14341;51.256;22.478;2022-12-07T10:40:28;1.40;99.90
26743;DHT22;14341;51.256;22.478;2022-12-07T10:43:33;1.50;99.90
26743;DHT22;14341;51.256;22.478;2022-12-07T10:46:53;1.60;99.90
26743;DHT22;14341;51.256;22.478;2022-12-07T10:50:19;1.50;99.90
26743;DHT22;14341;51.256;22.478;2022-12-07T10:53:33;1.60;99.90
26743;DHT22;14341;51.256;22.478;2022-12-07T10:56:57;1.60;99.90
26743;DHT22;14341;51.256;22.478;2022-12-07T11:00:16;1.60;99.90
26743;DHT22;14341;51.256;22.478;2022-12-07T11:03:29;1.60;99.90
26743;DHT22;14341;51.256;22.478;2022-12-07T11:06:37;1.60;99.90
26743;DHT22;14341;51.256;22.478;2022-12-07T11:09:50;1.60;99.90
26743;DHT22;14341;51.256;22.478;2022-12-07T11:13:25;1.60;99.90
26743;DHT22;14341;51.256;22.478;2022-12-07T11:16:51;1.60;99.90
26743;DHT22;14341;51.256;22.478;2022-12-07T11:20:02;1.70;99.90
26743;DHT22;14341;51.256;22.478;2022-12-07T11:23:18;1.70;99.90
26743;DHT22;14341;51.256;22.478;2022-12-07T11:26:40;1.70;99.90
26743;DHT22;14341;51.256;22.478;2022-12-07T11:30:08;1.70;99.90
26743;DHT22;14341;51.256;22.478;2022-12-07T11:33:20;1.70;99.90
26743;DHT22;14341;51.256;22.478;2022-12-07T11:36:37;1.70;99.90
26743;DHT22;14341;51.256;22.478;2022-12-07T11:39:46;1.60;99.90
26743;DHT22;14341;51.256;22.478;2022-12-07T11:42:53;1.70;99.90
26743;DHT22;14341;51.256;22.478;2022-12-07T11:46:04;1.60;99.90
26743;DHT22;14341;51.256;22.478;2022-12-07T11:49:13;1.60;99.90
26743;DHT22;14341;51.256;22.478;2022-12-07T11:52:29;1.60;99.90
26743;DHT22;14341;51.256;22.478;2022-12-07T11:55:41;1.70;99.90
26743;DHT22;14341;51.256;22.478;2022-12-07T11:58:49;1.80;99.90
26743;DHT22;14341;51.256;22.478;2022-12-07T12:01:57;1.90;99.90
26743;DHT22;14341;51.256;22.478;2022-12-07T12:05:13;1.90;99.90
26743;DHT22;14341;51.256;22.478;2022-12-07T12:08:21;1.80;99.90
26743;DHT22;14341;51.256;22.478;2022-12-07T12:12:02;1.80;99.90
26743;DHT22;14341;51.256;22.478;2022-12-07T12:15:43;1.90;99.90
26743;DHT22;14341;51.256;22.478;2022-12-07T12:19:10;1.90;99.90
26743;DHT22;14341;51.256;22.478;2022-12-07T12:22:22;1.80;99.90
26743;DHT22;14341;51.256;22.478;2022-12-07T12:25:30;1.80;99.90
26743;DHT22;14341;51.256;22.478;2022-12-07T12:28:39;1.80;99.90
26743;DHT22;14341;51.256;22.478;2022-12-07T12:32:06;1.80;99.90
26743;DHT22;14341;51.256;22.478;2022-12-07T12:35:28;1.80;99.90
26743;DHT22;14341;51.256;22.478;2022-12-07T12:38:34;1.70;99.90
26743;DHT22;14341;51.256;22.478;2022-12-07T12:41:58;1.70;99.90
26743;DHT22;14341;51.256;22.478;2022-12-07T12:45:21;1.70;99.90
26743;DHT22;14341;51.256;22.478;2022-12-07T12:48:30;1.70;99.90
26743;DHT22;14341;51.256;22.478;2022-12-07T12:51:40;1.70;99.90
26743;DHT22;14341;51.256;22.478;2022-12-07T12:54:59;1.70;99.90
26743;DHT22;14341;51.256;22.478;2022-12-07T12:58:32;1.70;99.90
26743;DHT22;14341;51.256;22.478;2022-12-07T13:01:43;1.80;99.90
26743;DHT22;14341;51.256;22.478;2022-12-07T13:04:53;1.80;99.90
26743;DHT22;14341;51.256;22.478;2022-12-07T13:07:58;1.70;99.90
26743;DHT22;14341;51.256;22.478;2022-12-07T13:11:18;1.60;99.90
26743;DHT22;14341;51.256;22.478;2022-12-07T13:18:21;1.60;99.90
26743;DHT22;14341;51.256;22.478;2022-12-07T13:21:41;1.60;99.90
26743;DHT22;14341;51.256;22.478;2022-12-07T13:24:44;1.60;99.90
26743;DHT22;14341;51.256;22.478;2022-12-07T13:27:55;1.60;99.90
26743;DHT22;14341;51.256;22.478;2022-12-07T13:31:13;1.60;99.90
26743;DHT22;14341;51.256;22.478;2022-12-07T13:34:29;1.60;99.90
26743;DHT22;14341;51.256;22.478;2022-12-07T13:37:33;1.60;99.90
26743;DHT22;14341;51.256;22.478;2022-12-07T13:40:39;1.60;99.90
26743;DHT22;14341;51.256;22.478;2022-12-07T13:43:50;1.60;99.90
26743;DHT22;14341;51.256;22.478;2022-12-07T13:46:59;1.50;99.90
26743;DHT22;14341;51.256;22.478;2022-12-07T13:50:23;1.50;99.90
26743;DHT22;14341;51.256;22.478;2022-12-07T13:53:27;1.40;99.90
26743;DHT22;14341;51.256;22.478;2022-12-07T13:56:34;1.40;99.90
26743;DHT22;14341;51.256;22.478;2022-12-07T13:59:39;1.40;99.90
26743;DHT22;14341;51.256;22.478;2022-12-07T14:02:56;1.30;99.90
26743;DHT22;14341;51.256;22.478;2022-12-07T14:06:22;1.20;99.90
26743;DHT22;14341;51.256;22.478;2022-12-07T14:09:28;1.30;99.90
26743;DHT22;14341;51.256;22.478;2022-12-07T14:12:32;1.20;99.90
26743;DHT22;14341;51.256;22.478;2022-12-07T14:15:40;1.20;99.90
26743;DHT22;14341;51.256;22.478;2022-12-07T14:18:43;1.20;99.90
26743;DHT22;14341;51.256;22.478;2022-12-07T14:21:46;1.10;99.90
26743;DHT22;14341;51.256;22.478;2022-12-07T14:24:50;1.10;99.90
26743;DHT22;14341;51.256;22.478;2022-12-07T14:27:57;1.10;99.90
26743;DHT22;14341;51.256;22.478;2022-12-07T14:31:03;1.20;99.90
26743;DHT22;14341;51.256;22.478;2022-12-07T14:34:11;1.20;99.90
26743;DHT22;14341;51.256;22.478;2022-12-07T14:37:15;1.20;99.90
26743;DHT22;14341;51.256;22.478;2022-12-07T14:40:20;1.20;99.90
26743;DHT22;14341;51.256;22.478;2022-12-07T14:43:23;1.10;99.90
26743;DHT22;14341;51.256;22.478;2022-12-07T14:46:28;1.20;99.90
26743;DHT22;14341;51.256;22.478;2022-12-07T14:49:32;1.20;99.90
26743;DHT22;14341;51.256;22.478;2022-12-07T14:52:35;1.20;99.90
26743;DHT22;14341;51.256;22.478;2022-12-07T14:55:59;1.30;99.90
26743;DHT22;14341;51.256;22.478;2022-12-07T14:59:02;1.30;99.90
26743;DHT22;14341;51.256;22.478;2022-12-07T15:02:09;1.30;99.90
26743;DHT22;14341;51.256;22.478;2022-12-07T15:05:13;1.30;99.90
26743;DHT22;14341;51.256;22.478;2022-12-07T15:08:18;1.30;99.90
26743;DHT22;14341;51.256;22.478;2022-12-07T15:11:21;1.30;99.90
26743;DHT22;14341;51.256;22.478;2022-12-07T15:14:25;1.30;99.90
26743;DHT22;14341;51.256;22.478;2022-12-07T15:17:29;1.40;99.90
26743;DHT22;14341;51.256;22.478;2022-12-07T15:20:33;1.30;99.90
26743;DHT22;14341;51.256;22.478;2022-12-07T15:23:36;1.30;99.90
26743;DHT22;14341;51.256;22.478;2022-12-07T15:26:40;1.30;99.90
26743;DHT22;14341;51.256;22.478;2022-12-07T15:29:43;1.40;99.90
26743;DHT22;14341;51.256;22.478;2022-12-07T15:32:50;1.30;99.90
26743;DHT22;14341;51.256;22.478;2022-12-07T15:35:54;1.30;99.90
26743;DHT22;14341;51.256;22.478;2022-12-07T15:38:57;1.40;99.90
26743;DHT22;14341;51.256;22.478;2022-12-07T15:42:16;1.30;99.90
26743;DHT22;14341;51.256;22.478;2022-12-07T15:45:20;1.40;99.90
26743;DHT22;14341;51.256;22.478;2022-12-07T15:48:25;1.30;99.90
26743;DHT22;14341;51.256;22.478;2022-12-07T15:51:30;1.40;99.90
26743;DHT22;14341;51.256;22.478;2022-12-07T15:54:34;1.40;99.90
26743;DHT22;14341;51.256;22.478;2022-12-07T15:57:38;1.40;99.90
26743;DHT22;14341;51.256;22.478;2022-12-07T16:00:41;1.40;99.90
26743;DHT22;14341;51.256;22.478;2022-12-07T16:03:46;1.40;99.90
26743;DHT22;14341;51.256;22.478;2022-12-07T16:06:50;1.50;99.90
26743;DHT22;14341;51.256;22.478;2022-12-07T16:09:53;1.40;99.90
26743;DHT22;14341;51.256;22.478;2022-12-07T16:12:57;1.40;99.90
26743;DHT22;14341;51.256;22.478;2022-12-07T16:16:03;1.40;99.90
26743;DHT22;14341;51.256;22.478;2022-12-07T16:19:08;1.40;99.90
26743;DHT22;14341;51.256;22.478;2022-12-07T16:22:13;1.40;99.90
26743;DHT22;14341;51.256;22.478;2022-12-07T16:25:16;1.40;99.90
26743;DHT22;14341;51.256;22.478;2022-12-07T16:28:19;1.40;99.90
26743;DHT22;14341;51.256;22.478;2022-12-07T16:31:24;1.40;99.90
26743;DHT22;14341;51.256;22.478;2022-12-07T16:34:29;1.50;99.90
26743;DHT22;14341;51.256;22.478;2022-12-07T16:37:33;1.50;99.90
26743;DHT22;14341;51.256;22.478;2022-12-07T16:40:36;1.50;99.90
26743;DHT22;14341;51.256;22.478;2022-12-07T16:43:40;1.40;99.90
26743;DHT22;14341;51.256;22.478;2022-12-07T16:46:43;1.50;99.90
26743;DHT22;14341;51.256;22.478;2022-12-07T16:49:48;1.40;99.90
26743;DHT22;14341;51.256;22.478;2022-12-07T16:52:51;1.50;99.90
26743;DHT22;14341;51.256;22.478;2022-12-07T16:55:54;1.50;99.90
26743;DHT22;14341;51.256;22.478;2022-12-07T16:58:58;1.40;99.90
26743;DHT22;14341;51.256;22.478;2022-12-07T17:02:01;1.40;99.90
26743;DHT22;14341;51.256;22.478;2022-12-07T17:05:07;1.40;99.90
26743;DHT22;14341;51.256;22.478;2022-12-07T17:08:11;1.50;99.90
26743;DHT22;14341;51.256;22.478;2022-12-07T17:11:16;1.40;99.90
26743;DHT22;14341;51.256;22.478;2022-12-07T17:14:20;1.50;99.90
26743;DHT22;14341;51.256;22.478;2022-12-07T17:17:40;1.40;99.90
26743;DHT22;14341;51.256;22.478;2022-12-07T17:20:45;1.40;99.90
26743;DHT22;14341;51.256;22.478;2022-12-07T17:23:48;1.50;99.90
26743;DHT22;14341;51.256;22.478;2022-12-07T17:26:52;1.50;99.90
26743;DHT22;14341;51.256;22.478;2022-12-07T17:29:56;1.50;99.90
26743;DHT22;14341;51.256;22.478;2022-12-07T17:33:00;1.50;99.90
26743;DHT22;14341;51.256;22.478;2022-12-07T17:36:11;1.50;99.90
26743;DHT22;14341;51.256;22.478;2022-12-07T17:39:16;1.50;99.90
26743;DHT22;14341;51.256;22.478;2022-12-07T17:42:20;1.60;99.90
26743;DHT22;14341;51.256;22.478;2022-12-07T17:45:38;1.60;99.90
26743;DHT22;14341;51.256;22.478;2022-12-07T17:48:42;1.60;99.90
26743;DHT22;14341;51.256;22.478;2022-12-07T17:51:47;1.60;99.90
26743;DHT22;14341;51.256;22.478;2022-12-07T17:55:07;1.60;99.90
26743;DHT22;14341;51.256;22.478;2022-12-07T17:58:11;1.70;99.90
26743;DHT22;14341;51.256;22.478;2022-12-07T18:01:16;1.70;99.90
26743;DHT22;14341;51.256;22.478;2022-12-07T18:04:26;1.70;99.90
26743;DHT22;14341;51.256;22.478;2022-12-07T18:07:31;1.70;99.90
26743;DHT22;14341;51.256;22.478;2022-12-07T18:10:34;1.70;99.90
26743;DHT22;14341;51.256;22.478;2022-12-07T18:13:38;1.70;99.90
26743;DHT22;14341;51.256;22.478;2022-12-07T18:16:41;1.70;99.90
26743;DHT22;14341;51.256;22.478;2022-12-07T18:19:45;1.70;99.90
26743;DHT22;14341;51.256;22.478;2022-12-07T18:22:50;1.70;99.90
26743;DHT22;14341;51.256;22.478;2022-12-07T18:25:53;1.70;99.90
26743;DHT22;14341;51.256;22.478;2022-12-07T18:28:58;1.60;99.90
26743;DHT22;14341;51.256;22.478;2022-12-07T18:32:02;1.60;99.90
26743;DHT22;14341;51.256;22.478;2022-12-07T18:35:08;1.60;99.90
26743;DHT22;14341;51.256;22.478;2022-12-07T18:38:14;1.50;99.90
26743;DHT22;14341;51.256;22.478;2022-12-07T18:41:17;1.50;99.90
26743;DHT22;14341;51.256;22.478;2022-12-07T18:44:22;1.40;99.90
26743;DHT22;14341;51.256;22.478;2022-12-07T18:47:25;1.30;99.90
26743;DHT22;14341;51.256;22.478;2022-12-07T18:50:29;1.30;99.90
26743;DHT22;14341;51.256;22.478;2022-12-07T18:53:34;1.30;99.90
26743;DHT22;14341;51.256;22.478;2022-12-07T18:56:38;1.20;99.90
26743;DHT22;14341;51.256;22.478;2022-12-07T18:59:41;1.10;99.90
26743;DHT22;14341;51.256;22.478;2022-12-07T19:02:49;1.10;99.90
26743;DHT22;14341;51.256;22.478;2022-12-07T19:05:53;1.10;99.90
26743;DHT22;14341;51.256;22.478;2022-12-07T19:09:00;1.00;99.90
26743;DHT22;14341;51.256;22.478;2022-12-07T19:12:05;1.10;99.90
26743;DHT22;14341;51.256;22.478;2022-12-07T19:15:10;1.10;99.90
26743;DHT22;14341;51.256;22.478;2022-12-07T19:18:14;1.10;99.90
26743;DHT22;14341;51.256;22.478;2022-12-07T19:21:17;1.00;99.90
26743;DHT22;14341;51.256;22.478;2022-12-07T19:24:22;1.00;99.90
26743;DHT22;14341;51.256;22.478;2022-12-07T19:27:26;0.90;99.90
26743;DHT22;14341;51.256;22.478;2022-12-07T19:30:29;1.00;99.90
26743;DHT22;14341;51.256;22.478;2022-12-07T19:33:33;0.90;99.90
26743;DHT22;14341;51.256;22.478;2022-12-07T19:36:37;0.90;99.90
26743;DHT22;14341;51.256;22.478;2022-12-07T19:39:41;0.90;99.90
26743;DHT22;14341;51.256;22.478;2022-12-07T19:42:47;1.00;99.90
26743;DHT22;14341;51.256;22.478;2022-12-07T19:45:50;1.20;99.90
26743;DHT22;14341;51.256;22.478;2022-12-07T19:48:54;1.10;99.90
26743;DHT22;14341;51.256;22.478;2022-12-07T19:51:59;1.10;99.90
26743;DHT22;14341;51.256;22.478;2022-12-07T19:55:05;1.10;99.90
26743;DHT22;14341;51.256;22.478;2022-12-07T19:58:09;1.10;99.90